KGUP

Gallup Municipal Airport

Gallup, New Mexico, USA
METAR KGUP 201553Z AUTO 00000KT 10SM CLR 21/03 A3032 RMK AO2 SLP127 T02110028
Observed Flight Rules
Aug-20 @ 15:53 UTC (31 minutes ago) Visual Flight Rules
Visibility Clouds
10 miles
  • Clear skies
Temperatures Readings
Current 21°C / 70°F
Dewpoint 3°C / 37°F
Humidity 31%
Altimeter 30.32" Hg
Pressure 1012.7 hPa
Elevation 1971
METAR KGUP 201553Z AUTO 00000KT 10SM CLR 21/03 A3032 RMK AO2 SLP127 T02110028
Observed Flight Rules
Aug-20 @ 15:53 UTC
(31 minutes ago)
VFR
Clouds
  • Clear skies
Temperature Dewpoint
21°C / 70°F 3°C / 37°F
Humidity Altimeter Pressure
31% 30.32" Hg 1012.7 hPa